^^
B2 Weather Station Historical Data
Daily Summary for July 18, 2019 Units:  English    Metric   Both
Daily Weekly Monthly Yearly Custom
  High: Low: Average:
Temperature: 90.3 °F 72.9 °F 79.8 °F
Dew Point: 82.2 °F 71.3 °F 75.8 °F
Humidity: 95% 72% 88%
Wind Speed: 12.7mph 0mph 5.6mph
Wind Gust: 8.9mph - -
Wind- - South
Pressure: 29.94 in 29.73 in -
Precipitation: 0.69 in    
Historical Graphs
 
 
Tabular Data for July 18, 2019
Time Temperature Dew Point Pressure Wind Wind Speed Wind Gust Humidity Rainfall Rate (Hourly) solar
00:04 78.4 °F 74.5 °F 29.85 in SSE 3.5 mph 1.5 mph 88% 0 in 0.00 W/m2
00:09 78.3 °F 74.5 °F 29.85 in SSW 3.5 mph 2.1 mph 88% 0 in 0.00 W/m2
00:14 78.3 °F 74.1 °F 29.84 in SSW 5.8 mph 2.6 mph 87% 0 in 0.00 W/m2
00:19 78.8 °F 74.3 °F 29.85 in SSW 3.5 mph 3.6 mph 86% 0 in 0.00 W/m2
00:24 79.3 °F 74.7 °F 29.85 in SSW 8.1 mph 5.2 mph 86% 0 in 0.00 W/m2
00:29 79.4 °F 74.5 °F 29.85 in SSW 5 mph 2.7 mph 85% 0 in 0.00 W/m2
00:34 79.4 °F 74.8 °F 29.85 in South 4.6 mph 2.8 mph 86% 0 in 0.00 W/m2
00:39 79.3 °F 74.7 °F 29.85 in SSW 5.8 mph 2.7 mph 86% 0 in 0.00 W/m2
00:44 79.2 °F 74.6 °F 29.85 in SSW 5.8 mph 4.7 mph 86% 0 in 0.00 W/m2
00:49 79.2 °F 74.6 °F 29.85 in SSW 8.1 mph 4.1 mph 86% 0 in 0.00 W/m2
00:54 79.1 °F 74.5 °F 29.85 in SW 3.5 mph 1 mph 86% 0 in 0.00 W/m2
00:59 78.9 °F 74.4 °F 29.85 in SSW 4.6 mph 3.3 mph 86% 0 in 0.00 W/m2
01:04 78.7 °F 74.2 °F 29.85 in SSW 4.6 mph 2.4 mph 86% 0 in 0.00 W/m2
01:09 78.5 °F 74.3 °F 29.85 in South 3.5 mph 2 mph 87% 0 in 0.00 W/m2
01:14 78.3 °F 74.1 °F 29.85 in South 3.5 mph 0.5 mph 87% 0 in 0.00 W/m2
01:19 78.1 °F 74.3 °F 29.85 in SSE 2.3 mph 0.7 mph 88% 0 in 0.00 W/m2
01:24 77.9 °F 74.1 °F 29.84 in SSW 1.2 mph 0.6 mph 88% 0 in 0.00 W/m2
01:29 77.7 °F 73.9 °F 29.84 in SSW 2.3 mph 0.5 mph 88% 0 in 0.00 W/m2
01:34 77.5 °F 74 °F 29.84 in Calm   0.3 mph 89% 0 in 0.00 W/m2
01:39 77.4 °F 73.9 °F 29.84 in SSW 3 mph 1 mph 89% 0 in 0.00 W/m2
01:44 77.3 °F 73.8 °F 29.84 in Calm   0.7 mph 89% 0 in 0.00 W/m2
01:49 77.2 °F 73.7 °F 29.84 in Calm     89% 0 in 0.00 W/m2
01:54 77.1 °F 73.9 °F 29.84 in SW 3.5 mph 0.7 mph 90% 0 in 0.00 W/m2
01:59 77.1 °F 73.9 °F 29.84 in SW 1.2 mph 0.7 mph 90% 0 in 0.00 W/m2
02:04 77.1 °F 73.9 °F 29.84 in SSW 3.5 mph 0.1 mph 90% 0 in 0.00 W/m2
02:09 77 °F 73.8 °F 29.84 in Calm     90% 0 in 0.00 W/m2
02:14 76.9 °F 73.7 °F 29.85 in Calm     90% 0 in 0.00 W/m2
02:19 76.8 °F 73.6 °F 29.85 in Calm     90% 0 in 0.00 W/m2
02:24 76.8 °F 73.6 °F 29.84 in SSW 3.5 mph 0.8 mph 90% 0 in 0.00 W/m2
02:29 76.7 °F 73.5 °F 29.84 in SSW 2 mph 0.6 mph 90% 0 in 0.00 W/m2
02:34 76.8 °F 73.6 °F 29.85 in SSW 1.2 mph 0.6 mph 90% 0 in 0.00 W/m2
02:39 76.8 °F 73.6 °F 29.85 in SSW 3.5 mph 0.6 mph 90% 0 in 0.00 W/m2
02:44 76.7 °F 73.5 °F 29.84 in SSW 1.2 mph   90% 0 in 0.00 W/m2
02:49 76.6 °F 73.4 °F 29.84 in SSW 2.3 mph   90% 0 in 0.00 W/m2
02:54 76.5 °F 73.7 °F 29.85 in SW 3.5 mph 2.1 mph 91% 0 in 0.00 W/m2
02:59 76.4 °F 73.6 °F 29.84 in SW 1.2 mph 0.8 mph 91% 0 in 0.00 W/m2
03:04 76.3 °F 73.5 °F 29.85 in SW 3.5 mph 0.7 mph 91% 0 in 0.00 W/m2
03:09 76.2 °F 73.4 °F 29.85 in SW 1.2 mph 0.1 mph 91% 0 in 0.00 W/m2
03:14 76 °F 73.2 °F 29.84 in SW 1.2 mph 0.3 mph 91% 0 in 0.00 W/m2
03:19 75.9 °F 73.1 °F 29.84 in Calm     91% 0 in 0.00 W/m2
03:24 75.8 °F 73 °F 29.84 in Calm     91% 0 in 0.00 W/m2
03:29 75.5 °F 72.7 °F 29.84 in Calm     91% 0 in 0.00 W/m2
03:34 75.1 °F 72.6 °F 29.84 in Calm     92% 0 in 0.00 W/m2
03:39 74.8 °F 72.3 °F 29.84 in Calm     92% 0 in 0.00 W/m2
03:44 74.5 °F 72 °F 29.85 in Calm     92% 0 in 0.00 W/m2
03:49 74.3 °F 72.1 °F 29.84 in Calm     93% 0 in 0.00 W/m2
03:54 73.9 °F 71.7 °F 29.84 in SW 1.2 mph   93% 0 in 0.00 W/m2
03:59 73.8 °F 71.6 °F 29.84 in Calm     93% 0 in 0.00 W/m2
04:04 73.7 °F 71.9 °F 29.84 in Calm     94% 0 in 0.00 W/m2
04:09 73.6 °F 71.8 °F 29.84 in Calm     94% 0 in 0.00 W/m2
04:14 73.4 °F 71.6 °F 29.84 in Calm     94% 0 in 0.00 W/m2
04:19 73.2 °F 71.4 °F 29.84 in Calm     94% 0 in 0.00 W/m2
04:24 73.1 °F 71.3 °F 29.84 in Calm     94% 0 in 0.00 W/m2
04:29 73.2 °F 71.4 °F 29.84 in SW 1 mph   94% 0 in 0.00 W/m2
04:34 73.1 °F 71.3 °F 29.85 in Calm     94% 0 in 0.00 W/m2
04:39 73.1 °F 71.6 °F 29.85 in SW 1.2 mph   95% 0 in 0.00 W/m2
04:44 73 °F 71.5 °F 29.85 in Calm     95% 0 in 0.00 W/m2
04:49 72.9 °F 71.4 °F 29.84 in Calm   0.1 mph 95% 0 in 0.00 W/m2
04:54 72.9 °F 71.4 °F 29.84 in SSW 2.3 mph 0.8 mph 95% 0 in 0.00 W/m2
04:59 73.1 °F 71.6 °F 29.84 in South 3.5 mph 2.5 mph 95% 0 in 0.00 W/m2
05:04 73.3 °F 71.8 °F 29.84 in South 2.3 mph 0.4 mph 95% 0 in 0.00 W/m2
05:09 73.4 °F 71.9 °F 29.85 in South 3 mph 1.3 mph 95% 0 in 0.00 W/m2
05:14 73.4 °F 71.9 °F 29.85 in South 2.3 mph 1.4 mph 95% 0 in 0.00 W/m2
05:19 73.3 °F 71.8 °F 29.85 in South 1 mph 0.4 mph 95% 0 in 0.00 W/m2
05:24 73.3 °F 71.8 °F 29.86 in South 1.2 mph   95% 0 in 0.00 W/m2
05:29 73.3 °F 71.8 °F 29.86 in Calm   0.1 mph 95% 0 in 0.00 W/m2
05:34 73.3 °F 71.8 °F 29.86 in South 2.3 mph 0.2 mph 95% 0 in 0.00 W/m2
05:39 73.4 °F 71.9 °F 29.86 in Calm     95% 0 in 7.00 W/m2
05:44 73.5 °F 72 °F 29.86 in South 2.3 mph 2.5 mph 95% 0 in 9.00 W/m2
05:49 73.6 °F 72.1 °F 29.86 in South 3 mph 1.6 mph 95% 0 in 11.00 W/m2
05:54 73.7 °F 72.2 °F 29.86 in South 2.3 mph 0.8 mph 95% 0 in 12.00 W/m2
05:59 73.7 °F 72.2 °F 29.86 in South 3.5 mph 1.6 mph 95% 0 in 12.00 W/m2
06:04 73.8 °F 72.3 °F 29.86 in SSE 3.5 mph 1.3 mph 95% 0 in 16.00 W/m2
06:09 73.8 °F 72.3 °F 29.86 in SSE 1.2 mph   95% 0 in 16.00 W/m2
06:14 73.9 °F 72.4 °F 29.86 in SSE 1 mph 0.4 mph 95% 0 in 19.00 W/m2
06:19 74 °F 72.5 °F 29.86 in SSE 3.5 mph 1.9 mph 95% 0 in 26.00 W/m2
06:24 74 °F 72.5 °F 29.85 in South 3.5 mph 3.2 mph 95% 0 in 37.00 W/m2
06:29 74.1 °F 72.6 °F 29.85 in South 4.6 mph 2.2 mph 95% 0 in 46.00 W/m2
06:34 74.2 °F 72.7 °F 29.86 in South 3.5 mph 1.2 mph 95% 0 in 49.00 W/m2
06:39 74.2 °F 72.7 °F 29.86 in South 3.5 mph 2 mph 95% 0 in 47.00 W/m2
06:44 74.4 °F 72.9 °F 29.87 in South 4 mph 1.9 mph 95% 0 in 54.00 W/m2
06:49 74.3 °F 72.8 °F 29.87 in South 4.6 mph 3 mph 95% 0 in 46.00 W/m2
06:54 74.4 °F 72.9 °F 29.86 in South 4 mph 3.5 mph 95% 0 in 46.00 W/m2
06:59 74.4 °F 72.9 °F 29.86 in South 4.6 mph 3 mph 95% 0 in 51.00 W/m2
07:04 74.5 °F 72.7 °F 29.87 in SSW 3.5 mph 1.3 mph 94% 0 in 32.00 W/m2
07:09 74.5 °F 72.7 °F 29.87 in SE 4 mph 1.9 mph 94% 0.04 in 14.00 W/m2
07:14 74 °F 72.2 °F 29.85 in SSE 5.8 mph 1.1 mph 94% 0.1 in 16.00 W/m2
07:19 73.4 °F 71.6 °F 29.86 in South 8.1 mph 2.9 mph 94% 0.1 in 25.00 W/m2
07:24 73.7 °F 72.2 °F 29.86 in South 3.5 mph 0.1 mph 95% 0.1 in 44.00 W/m2
07:29 73.9 °F 72.4 °F 29.86 in South 1.2 mph   95% 0.1 in 51.00 W/m2
07:34 74.1 °F 72.6 °F 29.86 in Calm     95% 0.1 in 47.00 W/m2
07:39 74.3 °F 72.8 °F 29.86 in Calm     95% 0.1 in 60.00 W/m2
07:44 74.4 °F 72.9 °F 29.86 in Calm     95% 0.1 in 77.00 W/m2
07:49 74.6 °F 73.1 °F 29.86 in SSE 4.6 mph 1 mph 95% 0.1 in 118.00 W/m2
07:54 74.9 °F 73.4 °F 29.85 in Calm     95% 0.1 in 167.00 W/m2
07:59 75.3 °F 73.8 °F 29.85 in Calm     95% 0.1 in 169.00 W/m2
08:04 75.3 °F 73.8 °F 29.85 in SW 5 mph 4.1 mph 95% 0.1 in 130.00 W/m2
08:09 75.4 °F 73.6 °F 29.85 in SSW 3.5 mph 0.6 mph 94% 0.06 in 322.00 W/m2
08:14 76 °F 74.1 °F 29.85 in SW 1.2 mph 1.3 mph 94% 0 in 380.00 W/m2
08:19 76.6 °F 74.4 °F 29.85 in South 5.8 mph   93% 0 in 239.00 W/m2
08:24 77.1 °F 74.6 °F 29.85 in South 4.6 mph 1.6 mph 92% 0 in 179.00 W/m2
08:29 77.3 °F 74.5 °F 29.85 in SSW 6.9 mph 2.9 mph 91% 0 in 178.00 W/m2
08:34 77.5 °F 74.3 °F 29.85 in South 10.4 mph 1.5 mph 90% 0 in 176.00 W/m2
08:39 77.8 °F 74.6 °F 29.86 in SSW 3.5 mph 2.2 mph 90% 0 in 209.00 W/m2
08:44 78 °F 74.5 °F 29.86 in SW 9.2 mph 3.7 mph 89% 0 in 341.00 W/m2
08:49 78.3 °F 74.5 °F 29.87 in SSW 9.2 mph 1 mph 88% 0 in 230.00 W/m2
08:54 78.7 °F 74.8 °F 29.87 in South 5 mph 2.2 mph 88% 0 in 431.00 W/m2
08:59 79.3 °F 75.1 °F 29.87 in SW 9 mph 5 mph 87% 0 in 475.00 W/m2
09:04 79.5 °F 74.6 °F 29.88 in SSW 8.1 mph 5.1 mph 85% 0 in 160.00 W/m2
09:09 79.4 °F 74.5 °F 29.87 in SSW 11.5 mph 4.7 mph 85% 0 in 169.00 W/m2
09:14 79.4 °F 74.8 °F 29.87 in SSW 3.5 mph 0.1 mph 86% 0 in 167.00 W/m2
09:19 79.4 °F 74.5 °F 29.87 in Calm     85% 0 in 146.00 W/m2
09:24 79.4 °F 74.5 °F 29.87 in SSW 4 mph 2.4 mph 85% 0 in 132.00 W/m2
09:29 79.5 °F 74.6 °F 29.87 in Calm   2 mph 85% 0 in 105.00 W/m2
09:34 79.4 °F 74.5 °F 29.87 in Calm     85% 0 in 86.00 W/m2
09:39 79.3 °F 74.4 °F 29.88 in WSW 3.5 mph   85% 0 in 44.00 W/m2
09:44 79.3 °F 74.4 °F 29.87 in Calm     85% 0 in 49.00 W/m2
09:49 79.3 °F 74.4 °F 29.88 in Calm     85% 0 in 47.00 W/m2
09:54 79.2 °F 74.3 °F 29.88 in Calm     85% 0 in 40.00 W/m2
09:59 79.2 °F 74.6 °F 29.88 in Calm     86% 0 in 18.00 W/m2
10:04 79.1 °F 74.5 °F 29.88 in Calm     86% 0 in 18.00 W/m2
10:09 79 °F 74.5 °F 29.88 in Calm     86% 0 in 26.00 W/m2
10:14 79 °F 74.1 °F 29.88 in West 4.6 mph 4.6 mph 85% 0 in 14.00 W/m2
10:19 79.1 °F 74.5 °F 29.89 in NNW 9 mph 6.5 mph 86% 0 in 18.00 W/m2
10:24 78.4 °F 73.5 °F 29.89 in NW 8.1 mph 5.6 mph 85% 0 in 40.00 W/m2
10:29 77.8 °F 73.3 °F 29.89 in NNW 4.6 mph 3.5 mph 86% 0 in 32.00 W/m2
10:34 77.5 °F 73.7 °F 29.89 in North 3.5 mph 1.3 mph 88% 0 in 47.00 W/m2
10:39 77.3 °F 73.5 °F 29.89 in Calm     88% 0 in 49.00 W/m2
10:44 77.1 °F 73.6 °F 29.89 in Calm     89% 0 in 49.00 W/m2
10:49 76.9 °F 73.4 °F 29.90 in Calm     89% 0 in 53.00 W/m2
10:54 76.6 °F 73.4 °F 29.90 in Calm     90% 0 in 62.00 W/m2
10:59 76.5 °F 73.7 °F 29.90 in Calm     91% 0 in 58.00 W/m2
11:04 76.4 °F 73.6 °F 29.89 in Calm     91% 0 in 74.00 W/m2
11:09 76.4 °F 73.9 °F 29.89 in Calm     92% 0 in 76.00 W/m2
11:14 76.4 °F 73.9 °F 29.89 in Calm     92% 0 in 51.00 W/m2
11:19 76.4 °F 73.9 °F 29.89 in Calm     92% 0 in 42.00 W/m2
11:24 76.3 °F 73.8 °F 29.90 in Calm     92% 0 in 40.00 W/m2
11:29 76.1 °F 73.6 °F 29.90 in Calm     92% 0 in 37.00 W/m2
11:34 76.1 °F 73.6 °F 29.90 in Calm     92% 0 in 35.00 W/m2
11:39 75.9 °F 73.4 °F 29.88 in East 3.5 mph 3 mph 92% 0 in 44.00 W/m2
11:44 75.6 °F 73.4 °F 29.89 in East 4.6 mph 1 mph 93% 0.03 in 53.00 W/m2
11:49 75.4 °F 73.2 °F 29.90 in East 1.2 mph 0.4 mph 93% 0.07 in 33.00 W/m2
11:54 75 °F 73.2 °F 29.90 in East 5.8 mph 0.7 mph 94% 0.09 in 28.00 W/m2
11:59 74.7 °F 72.9 °F 29.91 in ENE 2.3 mph   94% 0.09 in 9.00 W/m2
12:04 74.4 °F 72.6 °F 29.93 in SE 3 mph 0.8 mph 94% 0.1 in 9.00 W/m2
12:09 74 °F 72.2 °F 29.94 in ENE 1.2 mph   94% 0.31 in 0.00 W/m2
12:14 73.6 °F 71.8 °F 29.92 in NE 2.3 mph 1 mph 94% 0.49 in 21.00 W/m2
12:19 73.3 °F 71.5 °F 29.91 in ENE 4.6 mph 1.3 mph 94% 0.58 in 49.00 W/m2
12:24 73.2 °F 71.7 °F 29.91 in NE 6 mph 0.2 mph 95% 0.58 in 60.00 W/m2
12:29 73.1 °F 71.6 °F 29.91 in ENE 3 mph 2.2 mph 95% 0.58 in 62.00 W/m2
12:34 73 °F 71.5 °F 29.90 in NE 6.9 mph 2 mph 95% 0.58 in 146.00 W/m2
12:39 73.2 °F 71.7 °F 29.89 in ENE 8.1 mph 1.5 mph 95% 0.58 in 271.00 W/m2
12:44 74.1 °F 72.6 °F 29.90 in East 10.4 mph 5.1 mph 95% 0.55 in 635.00 W/m2
12:49 75.3 °F 73.8 °F 29.89 in East 8.1 mph 3.9 mph 95% 0.51 in 1162.00 W/m2
12:54 76.1 °F 74.6 °F 29.89 in ESE 7 mph 6 mph 95% 0.49 in 529.00 W/m2
12:59 75.5 °F 74 °F 29.89 in East 10.4 mph 5.2 mph 95% 0.49 in 385.00 W/m2
13:04 76.1 °F 74.6 °F 29.89 in ENE 11.5 mph 4.1 mph 95% 0.48 in 946.00 W/m2
13:09 76 °F 74.5 °F 29.90 in ENE 11.5 mph 3.9 mph 95% 0.27 in 359.00 W/m2
13:14 75.5 °F 74 °F 29.90 in East 10.4 mph 8.5 mph 95% 0.09 in 543.00 W/m2
13:19 75.6 °F 74.1 °F 29.89 in ESE 9.2 mph 6.8 mph 95% 0 in 563.00 W/m2
13:24 76.2 °F 74.7 °F 29.87 in East 12.7 mph 7 mph 95% 0 in 914.00 W/m2
13:29 76.7 °F 75.2 °F 29.87 in ESE 11.5 mph 6.5 mph 95% 0 in 853.00 W/m2
13:34 77.1 °F 74.9 °F 29.86 in SE 12.7 mph 7.5 mph 93% 0.01 in 846.00 W/m2
13:39 77.3 °F 74.8 °F 29.86 in SE 11.5 mph 7.9 mph 92% 0.01 in 847.00 W/m2
13:44 78 °F 75.5 °F 29.86 in East 10.4 mph 6.9 mph 92% 0.01 in 844.00 W/m2
13:49 78.3 °F 75.5 °F 29.85 in ENE 12.7 mph 5.1 mph 91% 0.01 in 838.00 W/m2
13:54 78.4 °F 75.2 °F 29.85 in East 10.4 mph 5.3 mph 90% 0.01 in 830.00 W/m2
13:59 78.8 °F 75.3 °F 29.85 in ESE 11.5 mph 6.8 mph 89% 0.01 in 828.00 W/m2
14:04 79.1 °F 75.9 °F 29.84 in ENE 8.1 mph 3.4 mph 90% 0.01 in 823.00 W/m2
14:09 79.6 °F 76.1 °F 29.84 in ESE 9.2 mph 4.5 mph 89% 0.01 in 819.00 W/m2
14:14 80 °F 76.5 °F 29.83 in ESE 11.5 mph 5.7 mph 89% 0.01 in 823.00 W/m2
14:19 80.2 °F 76.3 °F 29.83 in SE 11.5 mph 6.5 mph 88% 0.01 in 819.00 W/m2
14:24 80.7 °F 77.2 °F 29.83 in East 10.4 mph 2.8 mph 89% 0.01 in 789.00 W/m2
14:29 80.9 °F 76.7 °F 29.82 in ESE 10.4 mph 6.5 mph 87% 0.01 in 812.00 W/m2
14:34 81.2 °F 77 °F 29.82 in SE 9.2 mph 6.2 mph 87% 0 in 775.00 W/m2
14:39 81.4 °F 77.2 °F 29.81 in SSE 10 mph 7.3 mph 87% 0 in 793.00 W/m2
14:44 81.9 °F 77.3 °F 29.80 in SSE 11.5 mph 7 mph 86% 0 in 786.00 W/m2
14:49 82.1 °F 77.5 °F 29.80 in SSE 8.1 mph 6 mph 86% 0 in 773.00 W/m2
14:54 82.4 °F 77.4 °F 29.79 in SSE 11.5 mph 6.3 mph 85% 0 in 768.00 W/m2
14:59 82.6 °F 77.3 °F 29.79 in SE 8.1 mph 6.7 mph 84% 0 in 761.00 W/m2
15:04 82.9 °F 77.6 °F 29.79 in SE 11.5 mph 6.5 mph 84% 0 in 754.00 W/m2
15:09 83.1 °F 77.8 °F 29.78 in SSE 11.5 mph 6.8 mph 84% 0 in 745.00 W/m2
15:14 83.1 °F 77.8 °F 29.78 in SSE 11.5 mph 6.2 mph 84% 0 in 738.00 W/m2
15:19 83.3 °F 78 °F 29.78 in South 12.7 mph 6.2 mph 84% 0 in 731.00 W/m2
15:24 83.2 °F 77.9 °F 29.78 in South 11.5 mph 3.9 mph 84% 0 in 717.00 W/m2
15:29 83.8 °F 79.2 °F 29.78 in SSE 10.4 mph 6 mph 86% 0 in 707.00 W/m2
15:34 83.8 °F 78.4 °F 29.78 in SSE 6.9 mph 6.3 mph 84% 0 in 694.00 W/m2
15:39 84 °F 79.4 °F 29.78 in SE 9.2 mph 4.6 mph 86% 0 in 689.00 W/m2
15:44 84.2 °F 78.8 °F 29.77 in South 11.5 mph 6.9 mph 84% 0 in 679.00 W/m2
15:49 84.2 °F 78.5 °F 29.77 in SE 12.7 mph 6.3 mph 83% 0 in 666.00 W/m2
15:54 84.6 °F 79.2 °F 29.77 in SSE 6.9 mph 4.5 mph 84% 0 in 656.00 W/m2
15:59 84.9 °F 79.5 °F 29.76 in SSE 8.1 mph 4.1 mph 84% 0 in 645.00 W/m2
16:04 85.1 °F 79.4 °F 29.76 in SE 11.5 mph 4.9 mph 83% 0 in 633.00 W/m2
16:09 85.4 °F 79.6 °F 29.76 in SE 12.7 mph 5.9 mph 83% 0 in 621.00 W/m2
16:14 85.7 °F 80.7 °F 29.76 in SSE 6.9 mph 4.8 mph 85% 0 in 612.00 W/m2
16:19 86 °F 80.2 °F 29.76 in SSE 9.2 mph 6.8 mph 83% 0 in 598.00 W/m2
16:24 86.2 °F 80.8 °F 29.76 in SSE 5.8 mph 3.9 mph 84% 0 in 584.00 W/m2
16:29 86.5 °F 80.7 °F 29.75 in SSW 5.8 mph 3.9 mph 83% 0 in 577.00 W/m2
16:34 86.5 °F 80 °F 29.75 in South 11.5 mph 4.2 mph 81% 0 in 550.00 W/m2
16:39 86.6 °F 80.1 °F 29.75 in SSE 9.2 mph 4.9 mph 81% 0 in 550.00 W/m2
16:44 86.9 °F 80.7 °F 29.75 in SSE 10.4 mph 5.9 mph 82% 0 in 536.00 W/m2
16:49 87 °F 81.2 °F 29.74 in SSE 8.1 mph 3.6 mph 83% 0 in 450.00 W/m2
16:54 87.1 °F 80.9 °F 29.74 in SSE 11.5 mph 7.2 mph 82% 0 in 510.00 W/m2
16:59 87.3 °F 81.1 °F 29.73 in SSE 9.2 mph 3.2 mph 82% 0 in 459.00 W/m2
17:04 87.3 °F 81.1 °F 29.73 in South 8.1 mph 5.7 mph 82% 0 in 494.00 W/m2
17:09 87.5 °F 81.3 °F 29.73 in SSE 8.1 mph 1.5 mph 82% 0 in 482.00 W/m2
17:14 87.8 °F 81.2 °F 29.73 in South 8.1 mph 4.4 mph 81% 0 in 459.00 W/m2
17:19 88 °F 81.4 °F 29.73 in SSW 8.1 mph 4.5 mph 81% 0 in 443.00 W/m2
17:24 88.4 °F 82.2 °F 29.73 in South 8.1 mph 2.4 mph 82% 0 in 434.00 W/m2
17:29 88.7 °F 82.1 °F 29.73 in South 5 mph 5.1 mph 81% 0 in 418.00 W/m2
17:34 89 °F 82 °F 29.73 in South 6.9 mph 4.5 mph 80% 0 in 406.00 W/m2
17:39 89.5 °F 81.7 °F 29.73 in South 8.1 mph 4.2 mph 78% 0 in 381.00 W/m2
17:44 89.9 °F 80.5 °F 29.73 in SSW 11.5 mph 5.2 mph 74% 0 in 366.00 W/m2
17:49 90.3 °F 80.5 °F 29.73 in South 8 mph 7.7 mph 73% 0 in 288.00 W/m2
17:54 90.2 °F 80.4 °F 29.73 in SSW 6.9 mph 4.8 mph 73% 0 in 239.00 W/m2
17:59 90.2 °F 80.4 °F 29.73 in SW 10 mph 6.9 mph 73% 0 in 279.00 W/m2
18:04 90.3 °F 80.9 °F 29.73 in South 11 mph 3.6 mph 74% 0 in 311.00 W/m2
18:09 90.2 °F 80.4 °F 29.73 in South 11.5 mph 5.9 mph 73% 0 in 301.00 W/m2
18:14 90.2 °F 79.9 °F 29.73 in SSW 11.5 mph 8.9 mph 72% 0 in 265.00 W/m2
18:19 90.1 °F 79.8 °F 29.74 in SSW 12.7 mph 6.3 mph 72% 0 in 257.00 W/m2
18:24 90.1 °F 80.3 °F 29.74 in South 9.2 mph 6 mph 73% 0 in 257.00 W/m2
18:29 90.1 °F 80.7 °F 29.74 in SW 6.9 mph 3.1 mph 74% 0 in 200.00 W/m2
18:34 90 °F 80.6 °F 29.74 in SSW 8.1 mph 6.5 mph 74% 0 in 269.00 W/m2
18:39 89.8 °F 80.4 °F 29.74 in SSE 11.5 mph 6.5 mph 74% 0 in 213.00 W/m2
18:44 89.5 °F 80.1 °F 29.74 in SSE 11.5 mph 7.2 mph 74% 0 in 174.00 W/m2
18:49 89.3 °F 80.3 °F 29.74 in South 11.5 mph 5.3 mph 75% 0 in 188.00 W/m2
18:54 89.1 °F 80.1 °F 29.74 in SSW 11 mph 7.5 mph 75% 0 in 95.00 W/m2
18:59 88.8 °F 80.3 °F 29.74 in South 5.8 mph 4.3 mph 76% 0 in 102.00 W/m2
19:04 88.5 °F 80.4 °F 29.74 in SSW 6.9 mph 4.3 mph 77% 0 in 74.00 W/m2
19:09 88.3 °F 80.2 °F 29.74 in South 8.1 mph 5.4 mph 77% 0 in 81.00 W/m2
19:14 88.1 °F 80 °F 29.74 in SSW 10.4 mph 7.3 mph 77% 0 in 49.00 W/m2
19:19 87.9 °F 79.8 °F 29.74 in South 8.1 mph 5.9 mph 77% 0 in 32.00 W/m2
19:24 87.7 °F 79.6 °F 29.74 in SSW 6.9 mph 5.2 mph 77% 0 in 30.00 W/m2
19:29 87.5 °F 79.8 °F 29.75 in South 8 mph 6.5 mph 78% 0 in 28.00 W/m2
19:34 87.3 °F 79.6 °F 29.75 in South 6.9 mph 3.9 mph 78% 0 in 21.00 W/m2
19:39 87.2 °F 79.1 °F 29.75 in SW 11.5 mph 5.5 mph 77% 0 in 19.00 W/m2
19:44 87 °F 78.9 °F 29.75 in SSW 5.8 mph 4.2 mph 77% 0 in 19.00 W/m2
19:49 86.9 °F 79.2 °F 29.75 in SSW 8.1 mph 3.9 mph 78% 0 in 21.00 W/m2
19:54 86.6 °F 78.9 °F 29.75 in South 8.1 mph 4.9 mph 78% 0 in 19.00 W/m2
19:59 86.5 °F 78.8 °F 29.75 in South 8.1 mph 3.4 mph 78% 0 in 16.00 W/m2
20:04 86.3 °F 79 °F 29.75 in SW 6.9 mph 2.2 mph 79% 0 in 12.00 W/m2
20:09 86 °F 79.1 °F 29.75 in SSW 7 mph 3.1 mph 80% 0 in 11.00 W/m2
20:14 85.8 °F 78.9 °F 29.75 in SSW 6.9 mph 3.8 mph 80% 0 in 7.00 W/m2
20:19 85.6 °F 78.7 °F 29.75 in SSW 6.9 mph 4.1 mph 80% 0 in 0.00 W/m2
20:24 85.5 °F 79 °F 29.75 in South 10.4 mph 4.9 mph 81% 0 in 0.00 W/m2
20:29 85.4 °F 78.9 °F 29.75 in SSW 6.9 mph 3.5 mph 81% 0 in 0.00 W/m2
20:34 85.3 °F 78.8 °F 29.76 in SSW 6.9 mph 3.1 mph 81% 0 in 0.00 W/m2
20:39 85.2 °F 78.7 °F 29.75 in SSW 4 mph 3.3 mph 81% 0 in 0.00 W/m2
20:44 85 °F 78.9 °F 29.75 in South 6.9 mph 6.6 mph 82% 0 in 0.00 W/m2
20:49 84.9 °F 78.8 °F 29.76 in SSW 6.9 mph 3.7 mph 82% 0 in 0.00 W/m2
20:54 84.8 °F 78.7 °F 29.76 in South 6.9 mph 2.5 mph 82% 0 in 0.00 W/m2
20:59 84.6 °F 78.9 °F 29.76 in SSW 8.1 mph 3.9 mph 83% 0 in 0.00 W/m2
21:04 84.4 °F 78.7 °F 29.76 in South 5.8 mph 4.4 mph 83% 0 in 0.00 W/m2
21:09 84.2 °F 78.8 °F 29.76 in SSW 8 mph 4 mph 84% 0 in 0.00 W/m2
21:14 84.2 °F 78.8 °F 29.76 in SW 6.9 mph 3.9 mph 84% 0 in 0.00 W/m2
21:19 84 °F 78.6 °F 29.76 in SE 8.1 mph 4.4 mph 84% 0 in 0.00 W/m2
21:24 83.9 °F 78.9 °F 29.76 in SW 11.5 mph 3.7 mph 85% 0 in 0.00 W/m2
21:29 83.8 °F 78.8 °F 29.77 in SSW 8.1 mph 3.5 mph 85% 0 in 0.00 W/m2
21:34 83.6 °F 78.6 °F 29.77 in West 7 mph 3.6 mph 85% 0 in 0.00 W/m2
21:39 83.5 °F 78.9 °F 29.77 in SSW 8.1 mph 4.4 mph 86% 0 in 0.00 W/m2
21:44 83.4 °F 78.8 °F 29.77 in SW 9.2 mph 4.6 mph 86% 0 in 0.00 W/m2
21:49 83.3 °F 78.7 °F 29.77 in SSW 6.9 mph 5.5 mph 86% 0 in 0.00 W/m2
21:54 83.2 °F 78.6 °F 29.77 in SW 11.5 mph 4.7 mph 86% 0 in 0.00 W/m2
21:59 83.1 °F 78.8 °F 29.77 in SSW 6.9 mph 4.4 mph 87% 0 in 0.00 W/m2
22:04 83 °F 78.7 °F 29.77 in SSW 10.4 mph 5.6 mph 87% 0 in 0.00 W/m2
22:09 82.8 °F 78.5 °F 29.77 in South 10.4 mph 4.5 mph 87% 0 in 0.00 W/m2
22:14 82.6 °F 78.7 °F 29.78 in SW 11.5 mph 4.8 mph 88% 0 in 0.00 W/m2
22:19 82.5 °F 78.6 °F 29.78 in SW 6.9 mph 3.9 mph 88% 0 in 0.00 W/m2
22:24 82.4 °F 78.5 °F 29.78 in South 7 mph 3.2 mph 88% 0 in 0.00 W/m2
22:29 82.3 °F 78.4 °F 29.78 in SSW 7 mph 4 mph 88% 0 in 0.00 W/m2
22:34 82.2 °F 78.6 °F 29.78 in SSW 11.5 mph 5.3 mph 89% 0 in 0.00 W/m2
22:39 82.1 °F 78.5 °F 29.78 in SSW 8.1 mph 3.8 mph 89% 0 in 0.00 W/m2
22:44 82.1 °F 78.5 °F 29.78 in SSW 6.9 mph 4.6 mph 89% 0 in 0.00 W/m2
22:49 82 °F 78.4 °F 29.78 in SSW 6.9 mph 2.3 mph 89% 0 in 0.00 W/m2
22:54 81.9 °F 78.3 °F 29.78 in SSW 4.6 mph 2.3 mph 89% 0 in 0.00 W/m2
22:59 81.8 °F 78.2 °F 29.78 in SSW 3.5 mph 1.1 mph 89% 0 in 0.00 W/m2
23:04 81.7 °F 78.5 °F 29.78 in SSW 8.1 mph 3.3 mph 90% 0 in 0.00 W/m2
23:09 81.6 °F 78.4 °F 29.78 in SSW 4.6 mph 1.2 mph 90% 0 in 0.00 W/m2
23:14 81.4 °F 78.2 °F 29.78 in SW 6 mph 3.4 mph 90% 0 in 0.00 W/m2
23:19 81.4 °F 78.2 °F 29.78 in SSW 6.9 mph 4.7 mph 90% 0 in 0.00 W/m2
23:24 81.4 °F 78.2 °F 29.79 in South 5.8 mph 2 mph 90% 0 in 0.00 W/m2
23:29 81.3 °F 78.1 °F 29.79 in SW 4.6 mph 2.8 mph 90% 0 in 0.00 W/m2
23:34 81.2 °F 78 °F 29.79 in SSW 5.8 mph 3.7 mph 90% 0 in 0.00 W/m2
23:39 81.1 °F 77.9 °F 29.78 in South 3.5 mph 3.1 mph 90% 0 in 0.00 W/m2
23:44 81 °F 78.1 °F 29.78 in South 6.9 mph 3 mph 91% 0 in 0.00 W/m2
23:49 80.9 °F 78 °F 29.78 in SSW 5.8 mph 3.5 mph 91% 0 in 0.00 W/m2
23:54 80.8 °F 77.9 °F 29.78 in SW 6.9 mph 2.8 mph 91% 0 in 0.00 W/m2
23:59 80.8 °F 77.9 °F 29.78 in SSW 8.1 mph 3.9 mph 91% 0 in 0.00 W/m2
Bourbonnais, Illinois, USA
Compliments of Weather Underground - 4 mb